createdAt,value
2018-09-13T00:00:05.488Z,7.93
2018-09-13T00:02:33.787Z,9.23
2018-09-13T00:05:02.113Z,7.80
2018-09-13T00:07:30.412Z,8.30
2018-09-13T00:09:58.749Z,5.50
2018-09-13T00:12:27.043Z,5.37
2018-09-13T00:14:55.356Z,7.67
2018-09-13T00:17:23.654Z,7.00
2018-09-13T00:19:51.967Z,5.87
2018-09-13T00:22:20.279Z,5.77
2018-09-13T00:24:48.591Z,6.27
2018-09-13T00:27:16.892Z,7.00
2018-09-13T00:29:45.220Z,7.57
2018-09-13T00:32:13.523Z,7.20
2018-09-13T00:34:41.843Z,8.70
2018-09-13T00:37:10.144Z,8.30
2018-09-13T00:39:38.458Z,8.50
2018-09-13T00:42:06.792Z,7.57
2018-09-13T00:44:35.113Z,5.90
2018-09-13T00:47:08.656Z,8.07
2018-09-13T00:49:36.971Z,7.50
2018-09-13T00:52:05.280Z,4.50
2018-09-13T00:54:33.592Z,7.30
2018-09-13T00:57:01.926Z,5.43
2018-09-13T00:59:30.224Z,6.03
2018-09-13T01:01:58.601Z,5.20
2018-09-13T01:04:26.936Z,6.63
2018-09-13T01:06:55.228Z,5.10
2018-09-13T01:09:23.528Z,5.63
2018-09-13T01:11:51.864Z,5.37
2018-09-13T01:14:20.156Z,4.87
2018-09-13T01:16:48.483Z,6.00
2018-09-13T01:19:16.780Z,5.90
2018-09-13T01:21:45.096Z,6.57
2018-09-13T01:24:13.388Z,6.03
2018-09-13T01:26:41.704Z,5.40
2018-09-13T01:29:10.000Z,3.97
2018-09-13T01:31:38.324Z,5.63
2018-09-13T01:34:06.664Z,6.17
2018-09-13T01:36:35.013Z,5.13
2018-09-13T01:39:04.117Z,6.03
2018-09-13T01:41:32.432Z,5.67
2018-09-13T01:44:00.730Z,4.60
2018-09-13T01:46:29.039Z,6.40
2018-09-13T01:48:57.333Z,4.60
2018-09-13T01:51:25.663Z,6.90
2018-09-13T01:53:53.951Z,4.43
2018-09-13T01:56:22.268Z,6.20
2018-09-13T01:58:50.665Z,5.87
2018-09-13T02:01:18.980Z,6.10
2018-09-13T02:03:47.289Z,6.43
2018-09-13T02:06:15.612Z,6.33
2018-09-13T02:08:43.903Z,6.60
2018-09-13T02:11:12.257Z,6.33
2018-09-13T02:13:40.561Z,6.63
2018-09-13T02:16:08.883Z,6.50
2018-09-13T02:18:37.176Z,5.00
2018-09-13T02:21:05.652Z,5.50
2018-09-13T02:23:33.963Z,5.80
2018-09-13T02:26:02.285Z,6.70
2018-09-13T02:28:30.584Z,7.23
2018-09-13T02:30:58.898Z,5.73
2018-09-13T02:33:27.276Z,6.60
2018-09-13T02:35:55.596Z,4.30
2018-09-13T02:38:23.896Z,7.33
2018-09-13T02:40:52.204Z,5.27
2018-09-13T02:43:20.756Z,8.87
2018-09-13T02:45:49.078Z,8.23
2018-09-13T02:48:17.373Z,9.80
2018-09-13T02:50:45.697Z,8.90
2018-09-13T02:53:13.992Z,8.90
2018-09-13T02:55:42.311Z,8.43
2018-09-13T02:58:10.636Z,9.37
2018-09-13T03:00:38.956Z,8.20
2018-09-13T03:03:07.263Z,9.30
2018-09-13T03:05:35.586Z,9.30
2018-09-13T03:08:03.893Z,8.00
2018-09-13T03:10:32.236Z,8.87
2018-09-13T03:13:00.533Z,9.97
2018-09-13T03:15:28.847Z,9.53
2018-09-13T03:17:57.149Z,4.90
2018-09-13T03:20:25.454Z,12.03
2018-09-13T03:22:53.771Z,12.30
2018-09-13T03:25:22.084Z,10.10
2018-09-13T03:27:50.445Z,10.20
2018-09-13T03:30:18.763Z,10.47
2018-09-13T03:32:47.086Z,12.33
2018-09-13T03:35:15.388Z,10.80
2018-09-13T03:37:43.712Z,14.47
2018-09-13T03:40:12.025Z,13.77
2018-09-13T03:42:40.349Z,13.67
2018-09-13T03:45:08.653Z,12.47
2018-09-13T03:47:36.975Z,14.33
2018-09-13T03:50:05.312Z,14.77
2018-09-13T03:52:33.642Z,13.80
2018-09-13T03:55:01.956Z,14.53
2018-09-13T03:57:30.326Z,13.80
2018-09-13T03:59:58.688Z,13.00
2018-09-13T04:02:27.036Z,15.37
2018-09-13T04:04:55.324Z,14.70
2018-09-13T04:07:23.636Z,14.47
2018-09-13T04:09:51.956Z,14.40
2018-09-13T04:12:20.620Z,14.30
2018-09-13T04:14:48.943Z,14.30
2018-09-13T04:17:17.268Z,16.67
2018-09-13T04:19:46.498Z,15.87
2018-09-13T04:22:15.724Z,17.70
2018-09-13T04:24:44.503Z,16.90
2018-09-13T04:27:13.225Z,17.70
2018-09-13T04:29:41.905Z,18.67
2018-09-13T04:32:10.225Z,17.03
2018-09-13T04:34:38.687Z,16.83
2018-09-13T04:37:07.069Z,18.23
2018-09-13T04:39:35.372Z,19.40
2018-09-13T04:42:03.695Z,19.50
2018-09-13T04:44:32.028Z,17.87
2018-09-13T04:47:00.357Z,21.43
2018-09-13T04:49:28.662Z,12.53
2018-09-13T04:51:56.983Z,10.90
2018-09-13T04:54:25.312Z,11.00
2018-09-13T04:56:53.629Z,17.93
2018-09-13T04:59:21.936Z,11.70
2018-09-13T05:01:50.252Z,15.93
2018-09-13T05:04:18.553Z,15.93
2018-09-13T05:06:46.880Z,11.60
2018-09-13T05:09:15.239Z,18.27
2018-09-13T05:11:43.576Z,17.70
2018-09-13T05:14:11.876Z,14.60
2018-09-13T05:16:40.196Z,18.10
2018-09-13T05:19:08.500Z,12.97
2018-09-13T05:21:36.828Z,13.07
2018-09-13T05:24:05.160Z,13.80
2018-09-13T05:26:33.479Z,14.80
2018-09-13T05:29:01.795Z,13.50
2018-09-13T05:31:30.176Z,14.63
2018-09-13T05:33:58.713Z,15.67
2018-09-13T05:36:27.014Z,14.60
2018-09-13T05:38:55.475Z,14.93
2018-09-13T05:41:23.780Z,15.23
2018-09-13T05:43:52.091Z,14.37
2018-09-13T05:46:20.398Z,15.33
2018-09-13T05:48:48.728Z,15.20
2018-09-13T05:51:17.079Z,17.60
2018-09-13T05:53:45.379Z,16.37
2018-09-13T05:56:13.676Z,15.70
2018-09-13T05:58:41.996Z,14.10
2018-09-13T06:01:10.405Z,13.27
2018-09-13T06:03:38.728Z,13.20
2018-09-13T06:06:07.041Z,13.97
2018-09-13T06:08:35.358Z,13.30
2018-09-13T06:11:03.681Z,12.60
2018-09-13T06:13:32.026Z,15.47
2018-09-13T06:16:00.342Z,17.83
2018-09-13T06:18:28.664Z,18.70
2018-09-13T06:20:56.972Z,15.03
2018-09-13T06:23:25.300Z,16.13
2018-09-13T06:25:53.608Z,18.03
2018-09-13T06:28:21.946Z,20.03
2018-09-13T06:30:50.244Z,20.27
2018-09-13T06:33:18.570Z,19.77
2018-09-13T06:35:46.880Z,19.80
2018-09-13T06:38:15.215Z,14.00
2018-09-13T06:40:43.533Z,21.90
2018-09-13T06:43:11.863Z,17.40
2018-09-13T06:45:40.176Z,18.93
2018-09-13T06:48:08.501Z,18.57
2018-09-13T06:50:36.809Z,14.73
2018-09-13T06:53:05.140Z,15.67
2018-09-13T06:55:33.440Z,15.07
2018-09-13T06:58:01.756Z,20.97
2018-09-13T07:00:30.120Z,20.43
2018-09-13T07:02:58.437Z,16.00
2018-09-13T07:05:26.999Z,16.50
2018-09-13T07:07:55.343Z,17.50
2018-09-13T07:10:23.664Z,18.93
2018-09-13T07:12:51.983Z,18.80
2018-09-13T07:15:20.304Z,21.97
2018-09-13T07:17:48.624Z,18.13
2018-09-13T07:20:16.932Z,20.50
2018-09-13T07:22:45.262Z,21.23
2018-09-13T07:25:13.661Z,19.90
2018-09-13T07:27:42.010Z,21.33
2018-09-13T07:30:10.318Z,17.80
2018-09-13T07:32:38.652Z,19.03
2018-09-13T07:35:06.948Z,19.03
2018-09-13T07:37:35.305Z,19.10
2018-09-13T07:40:03.627Z,18.10
2018-09-13T07:42:32.124Z,18.70
2018-09-13T07:45:00.383Z,17.67
2018-09-13T07:47:28.680Z,19.50
2018-09-13T07:49:57.116Z,18.13
2018-09-13T07:52:25.372Z,17.40
2018-09-13T07:54:53.699Z,17.73
2018-09-13T07:57:22.004Z,18.37
2018-09-13T07:59:50.328Z,16.13
2018-09-13T08:02:18.622Z,18.10
2018-09-13T08:04:46.936Z,19.27
2018-09-13T08:07:15.249Z,19.90
2018-09-13T08:09:43.580Z,18.10
2018-09-13T08:12:12.041Z,16.07
2018-09-13T08:14:40.448Z,18.07
2018-09-13T08:17:08.766Z,16.10
2018-09-13T08:19:37.076Z,17.97
2018-09-13T08:22:05.457Z,16.10
2018-09-13T08:24:33.750Z,17.50
2018-09-13T08:27:02.062Z,14.87
2018-09-13T08:29:30.400Z,15.70
2018-09-13T08:31:58.716Z,14.10
2018-09-13T08:34:27.042Z,16.90
2018-09-13T08:36:55.390Z,14.53
2018-09-13T08:39:23.703Z,16.13
2018-09-13T08:41:52.012Z,15.47
2018-09-13T08:44:20.381Z,16.03
2018-09-13T08:46:48.688Z,16.83
2018-09-13T08:49:17.011Z,16.80
2018-09-13T08:51:45.320Z,15.60
2018-09-13T08:54:13.640Z,13.03
2018-09-13T08:56:41.940Z,14.40
2018-09-13T08:59:10.279Z,12.30
2018-09-13T09:01:38.584Z,14.70
2018-09-13T09:04:06.913Z,14.83
2018-09-13T09:06:35.317Z,14.03
2018-09-13T09:09:04.167Z,13.83
2018-09-13T09:11:32.560Z,14.27
2018-09-13T09:14:00.825Z,13.33
2018-09-13T09:16:29.136Z,16.20
2018-09-13T09:18:57.460Z,15.50
2018-09-13T09:21:25.774Z,16.50
2018-09-13T09:23:54.105Z,15.33
2018-09-13T09:26:22.408Z,14.90
2018-09-13T09:28:50.848Z,16.20
2018-09-13T09:31:19.184Z,17.20
2018-09-13T09:33:47.514Z,13.33
2018-09-13T09:36:15.836Z,15.07
2018-09-13T09:38:44.160Z,19.67
2018-09-13T09:41:12.514Z,17.60
2018-09-13T09:43:40.807Z,18.30
2018-09-13T09:46:09.111Z,19.83
2018-09-13T09:48:37.460Z,17.73
2018-09-13T09:51:05.765Z,22.57
2018-09-13T09:53:34.088Z,17.70
2018-09-13T09:56:02.415Z,16.93
2018-09-13T09:58:30.720Z,19.97
2018-09-13T10:01:04.544Z,23.13
2018-09-13T10:03:32.844Z,21.20
2018-09-13T10:06:01.156Z,22.60
2018-09-13T10:08:29.453Z,24.10
2018-09-13T10:10:58.032Z,22.20
2018-09-13T10:13:26.334Z,23.30
2018-09-13T10:16:00.071Z,22.23
2018-09-13T10:18:33.992Z,22.37
2018-09-13T10:22:10.667Z,23.03
2018-09-13T10:24:44.531Z,17.80
2018-09-13T10:27:18.260Z,19.10
2018-09-13T10:29:52.668Z,25.20
2018-09-13T10:32:26.494Z,31.50
2018-09-13T10:35:00.424Z,31.00
2018-09-13T10:37:34.154Z,32.00
2018-09-13T10:40:07.812Z,31.20
2018-09-13T10:42:41.483Z,35.53
2018-09-13T10:45:15.140Z,33.20
2018-09-13T10:48:46.484Z,35.07
2018-09-13T10:51:20.776Z,37.53
2018-09-13T10:53:58.479Z,36.23
2018-09-13T10:56:27.143Z,27.47
2018-09-13T10:58:55.454Z,26.27
2018-09-13T11:01:23.780Z,34.60
2018-09-13T11:03:52.745Z,30.13
2018-09-13T11:06:21.080Z,29.17
2018-09-13T11:08:49.404Z,29.83
2018-09-13T11:11:17.772Z,29.00
2018-09-13T11:15:54.102Z,28.10
2018-09-13T11:18:22.414Z,26.80
2018-09-13T11:20:50.741Z,26.33
2018-09-13T11:23:19.043Z,25.40
2018-09-13T11:25:47.359Z,25.20
2018-09-13T11:28:15.659Z,25.10
2018-09-13T11:30:44.064Z,26.90
2018-09-13T11:33:12.315Z,24.70
2018-09-13T11:35:40.644Z,26.13
2018-09-13T11:38:08.944Z,26.23
2018-09-13T11:40:37.399Z,25.57
2018-09-13T11:43:05.579Z,25.27
2018-09-13T11:45:33.892Z,23.50
2018-09-13T11:48:02.197Z,24.03
2018-09-13T11:50:30.540Z,23.37
2018-09-13T11:52:58.839Z,25.97
2018-09-13T11:55:27.187Z,24.50
2018-09-13T11:57:55.496Z,23.27
2018-09-13T12:00:23.824Z,25.90
2018-09-13T12:02:52.133Z,24.17
2018-09-13T12:05:20.448Z,25.13
2018-09-13T12:07:48.753Z,21.07
2018-09-13T12:10:17.087Z,24.30
2018-09-13T12:12:45.389Z,18.37
2018-09-13T12:15:13.704Z,21.23
2018-09-13T12:17:42.008Z,17.47
2018-09-13T12:20:10.328Z,17.03
2018-09-13T12:22:39.526Z,19.00
2018-09-13T12:25:07.812Z,19.50
2018-09-13T12:27:36.193Z,18.13
2018-09-13T12:30:04.939Z,18.80
2018-09-13T12:32:33.358Z,18.50
2018-09-13T12:35:01.682Z,17.47
2018-09-13T12:37:29.986Z,17.47
2018-09-13T12:39:58.304Z,16.07
2018-09-13T12:42:26.602Z,17.77
2018-09-13T12:44:54.932Z,18.37
2018-09-13T12:47:23.240Z,18.80
2018-09-13T12:49:51.634Z,17.03
2018-09-13T12:52:19.973Z,15.30
2018-09-13T12:54:48.252Z,14.20
2018-09-13T12:57:16.571Z,17.80
2018-09-13T12:59:44.927Z,15.73
2018-09-13T13:02:13.216Z,15.47
2018-09-13T13:04:41.516Z,17.47
2018-09-13T13:07:09.827Z,14.67
2018-09-13T13:09:38.120Z,15.00
2018-09-13T13:12:06.540Z,14.13
2018-09-13T13:14:34.852Z,14.27
2018-09-13T13:17:03.289Z,15.70
2018-09-13T13:19:31.528Z,14.60
2018-09-13T13:21:59.845Z,13.97
2018-09-13T13:24:28.140Z,14.20
2018-09-13T13:26:56.491Z,17.07
2018-09-13T13:29:24.780Z,15.90
2018-09-13T13:31:53.096Z,17.27
2018-09-13T13:34:21.404Z,16.20
2018-09-13T13:36:49.716Z,16.63
2018-09-13T13:39:18.016Z,18.30
2018-09-13T13:41:46.332Z,17.63
2018-09-13T13:44:14.624Z,18.53
2018-09-13T13:46:42.961Z,18.57
2018-09-13T13:49:11.260Z,17.83
2018-09-13T13:51:39.587Z,19.10
2018-09-13T13:54:07.884Z,20.47
2018-09-13T13:56:36.201Z,20.43
2018-09-13T13:59:04.528Z,19.27
2018-09-13T14:01:32.852Z,17.93
2018-09-13T14:04:01.152Z,19.47
2018-09-13T14:06:29.529Z,18.00
2018-09-13T14:08:57.840Z,19.13
2018-09-13T14:11:26.183Z,19.17
2018-09-13T14:13:54.488Z,19.43
2018-09-13T14:16:22.812Z,19.03
2018-09-13T14:18:51.115Z,18.67
2018-09-13T14:21:19.451Z,18.00
2018-09-13T14:23:47.764Z,20.87
2018-09-13T14:26:16.064Z,20.03
2018-09-13T14:28:44.388Z,22.40
2018-09-13T14:31:12.689Z,20.40
2018-09-13T14:33:41.009Z,19.07
2018-09-13T14:36:09.359Z,23.00
2018-09-13T14:38:37.680Z,20.23
2018-09-13T14:41:06.243Z,20.23
2018-09-13T14:43:34.575Z,20.17
2018-09-13T14:46:03.027Z,19.83
2018-09-13T14:48:31.236Z,19.80
2018-09-13T14:50:59.544Z,21.63
2018-09-13T14:53:27.867Z,22.00
2018-09-13T14:55:56.181Z,20.63
2018-09-13T14:58:24.495Z,21.67
2018-09-13T15:00:52.799Z,20.60
2018-09-13T15:03:21.119Z,21.27
2018-09-13T15:05:49.425Z,21.93
2018-09-13T15:08:17.751Z,20.10
2018-09-13T15:10:46.076Z,19.53
2018-09-13T15:13:14.413Z,20.33
2018-09-13T15:15:42.712Z,19.40
2018-09-13T15:18:11.112Z,19.43
2018-09-13T15:20:39.576Z,19.70
2018-09-13T15:23:07.896Z,21.33
2018-09-13T15:25:36.196Z,18.87
2018-09-13T15:28:04.519Z,18.53
2018-09-13T15:30:32.896Z,20.70
2018-09-13T15:33:01.211Z,19.10
2018-09-13T15:35:29.556Z,19.53
2018-09-13T15:37:57.884Z,19.67
2018-09-13T15:40:26.185Z,20.93
2018-09-13T15:42:54.521Z,19.10
2018-09-13T15:45:22.843Z,18.10
2018-09-13T15:47:51.177Z,17.80
2018-09-13T15:50:19.478Z,17.90
2018-09-13T15:52:47.867Z,18.77
2018-09-13T15:55:16.140Z,18.10
2018-09-13T15:57:44.456Z,18.00
2018-09-13T16:00:12.776Z,19.13
2018-09-13T16:02:41.105Z,17.90
2018-09-13T16:05:09.517Z,19.17
2018-09-13T16:07:37.840Z,17.50
2018-09-13T16:10:06.650Z,18.53
2018-09-13T16:12:35.034Z,16.47
2018-09-13T16:15:03.313Z,17.70
2018-09-13T16:17:31.612Z,16.87
2018-09-13T16:19:59.996Z,17.43
2018-09-13T16:22:28.252Z,17.17
2018-09-13T16:24:56.580Z,17.10
2018-09-13T16:27:24.936Z,18.03
2018-09-13T16:29:53.307Z,17.07
2018-09-13T16:32:23.308Z,17.47
2018-09-13T16:34:52.501Z,16.50
2018-09-13T16:37:26.117Z,17.10
2018-09-13T16:40:04.918Z,17.80
2018-09-13T16:42:44.400Z,17.23
2018-09-13T16:45:12.784Z,20.73
2018-09-13T16:47:46.405Z,19.37
2018-09-13T16:50:14.824Z,19.83
2018-09-13T16:52:43.147Z,20.83
2018-09-13T16:55:11.476Z,20.23
2018-09-13T16:57:39.788Z,19.67
2018-09-13T17:00:08.108Z,19.60
2018-09-13T17:02:36.472Z,19.10
2018-09-13T17:05:04.864Z,20.97
2018-09-13T17:07:33.316Z,21.00
2018-09-13T17:10:01.658Z,20.20
2018-09-13T17:12:29.965Z,22.30
2018-09-13T17:14:58.284Z,20.00
2018-09-13T17:17:26.596Z,20.10
2018-09-13T17:19:54.924Z,22.63
2018-09-13T17:22:23.256Z,22.00
2018-09-13T17:24:51.591Z,23.27
2018-09-13T17:27:19.936Z,21.27
2018-09-13T17:29:48.260Z,23.53
2018-09-13T17:32:16.560Z,33.60
2018-09-13T17:34:44.880Z,39.40
2018-09-13T17:37:13.184Z,54.90
2018-09-13T17:39:41.680Z,35.57
2018-09-13T17:42:09.984Z,54.70
2018-09-13T17:44:38.312Z,50.30
2018-09-13T17:47:06.603Z,39.47
2018-09-13T17:49:34.961Z,30.30
2018-09-13T17:52:03.269Z,24.40
2018-09-13T17:54:31.588Z,42.17
2018-09-13T17:56:59.960Z,39.50
2018-09-13T17:59:28.279Z,55.97
2018-09-13T18:01:56.584Z,46.47
2018-09-13T18:04:24.907Z,38.53
2018-09-13T18:06:53.259Z,73.73
2018-09-13T18:09:21.597Z,54.93
2018-09-13T18:11:49.919Z,41.40
2018-09-13T18:14:18.237Z,30.37
2018-09-13T18:16:46.544Z,24.33
2018-09-13T18:19:14.864Z,30.27
2018-09-13T18:21:43.191Z,29.20
2018-09-13T18:24:11.621Z,31.93
2018-09-13T18:26:39.932Z,33.60
2018-09-13T18:29:08.259Z,30.03
2018-09-13T18:31:36.573Z,40.83
2018-09-13T18:34:04.906Z,31.90
2018-09-13T18:36:33.232Z,34.70
2018-09-13T18:39:01.565Z,67.03
2018-09-13T18:41:29.904Z,54.43
2018-09-13T18:43:58.240Z,33.07
2018-09-13T18:46:26.548Z,37.47
2018-09-13T18:48:54.889Z,30.73
2018-09-13T18:51:23.196Z,31.63
2018-09-13T18:53:51.744Z,34.27
2018-09-13T18:56:19.960Z,47.40
2018-09-13T18:58:48.268Z,35.10
2018-09-13T19:01:16.602Z,29.60
2018-09-13T19:03:44.905Z,22.30
2018-09-13T19:06:13.220Z,30.70
2018-09-13T19:08:41.520Z,25.13
2018-09-13T19:11:09.926Z,18.37
2018-09-13T19:13:38.236Z,19.60
2018-09-13T19:16:06.789Z,17.20
2018-09-13T19:18:35.111Z,19.23
2018-09-13T19:21:03.433Z,14.63
2018-09-13T19:23:31.735Z,20.50
2018-09-13T19:26:00.065Z,12.17
2018-09-13T19:28:28.368Z,13.40
2018-09-13T19:30:56.743Z,19.03
2018-09-13T19:33:25.027Z,22.40
2018-09-13T19:35:53.344Z,17.97
2018-09-13T19:38:22.033Z,18.23
2018-09-13T19:40:50.392Z,10.57
2018-09-13T19:43:18.705Z,15.27
2018-09-13T19:45:47.020Z,14.70
2018-09-13T19:48:15.417Z,14.63
2018-09-13T19:50:43.801Z,13.30
2018-09-13T19:53:12.118Z,14.27
2018-09-13T19:55:40.428Z,10.20
2018-09-13T19:58:08.736Z,10.30
2018-09-13T20:00:37.056Z,9.87
2018-09-13T20:03:05.440Z,13.33
2018-09-13T20:05:33.808Z,12.80
2018-09-13T20:08:02.108Z,9.93
2018-09-13T20:10:30.452Z,12.10
2018-09-13T20:12:58.748Z,8.60
2018-09-13T20:15:27.195Z,9.90
2018-09-13T20:17:55.523Z,9.53
2018-09-13T20:20:23.861Z,10.00
2018-09-13T20:22:52.169Z,10.43
2018-09-13T20:25:20.631Z,9.33
2018-09-13T20:27:49.102Z,10.00
2018-09-13T20:30:17.517Z,10.50
2018-09-13T20:32:45.820Z,11.37
2018-09-13T20:35:14.144Z,11.73
2018-09-13T20:37:42.444Z,10.63
2018-09-13T20:40:10.761Z,11.70
2018-09-13T20:42:39.082Z,11.77
2018-09-13T20:45:07.452Z,11.03
2018-09-13T20:47:35.764Z,10.20
2018-09-13T20:50:04.153Z,11.10
2018-09-13T20:52:32.492Z,10.27
2018-09-13T20:55:00.841Z,10.70
2018-09-13T20:57:29.152Z,10.97
2018-09-13T20:59:57.475Z,9.97
2018-09-13T21:02:25.776Z,8.50
2018-09-13T21:04:54.102Z,8.40
2018-09-13T21:07:22.405Z,7.13
2018-09-13T21:09:50.726Z,10.43
2018-09-13T21:12:19.045Z,7.47
2018-09-13T21:14:47.359Z,10.00
2018-09-13T21:17:15.921Z,11.30
2018-09-13T21:19:44.526Z,12.90
2018-09-13T21:22:12.896Z,10.93
2018-09-13T21:24:41.199Z,11.90
2018-09-13T21:27:09.528Z,11.50
2018-09-13T21:29:37.864Z,10.90
2018-09-13T21:32:06.193Z,12.70
2018-09-13T21:34:34.496Z,11.80
2018-09-13T21:37:02.891Z,12.33
2018-09-13T21:39:31.204Z,12.83
2018-09-13T21:41:59.553Z,14.60
2018-09-13T21:44:27.929Z,15.47
2018-09-13T21:46:56.225Z,13.73
2018-09-13T21:49:24.537Z,13.13
2018-09-13T21:51:52.860Z,12.63
2018-09-13T21:54:21.156Z,12.77
2018-09-13T21:56:49.476Z,13.00
2018-09-13T21:59:17.775Z,13.30
2018-09-13T22:01:46.101Z,12.43
2018-09-13T22:04:14.409Z,12.40
2018-09-13T22:06:42.742Z,13.07
2018-09-13T22:09:11.052Z,14.93
2018-09-13T22:11:40.523Z,13.67
2018-09-13T22:14:08.824Z,15.03
2018-09-13T22:16:37.148Z,14.60
2018-09-13T22:19:05.464Z,13.63
2018-09-13T22:21:34.274Z,16.20
2018-09-13T22:24:02.985Z,14.57
2018-09-13T22:26:31.337Z,15.97
2018-09-13T22:28:59.682Z,17.83
2018-09-13T22:31:27.997Z,17.50
2018-09-13T22:33:56.668Z,17.70
2018-09-13T22:36:25.023Z,18.37
2018-09-13T22:38:53.326Z,19.07
2018-09-13T22:41:21.661Z,19.37
2018-09-13T22:43:50.767Z,22.67
2018-09-13T22:46:20.268Z,22.73
2018-09-13T22:48:48.780Z,24.00
2018-09-13T22:51:17.355Z,23.40
2018-09-13T22:53:45.694Z,23.23
2018-09-13T22:56:14.348Z,23.50
2018-09-13T22:58:42.648Z,24.30
2018-09-13T23:01:10.973Z,22.87
2018-09-13T23:03:39.283Z,23.73
2018-09-13T23:06:07.609Z,25.80
2018-09-13T23:08:35.912Z,24.07
2018-09-13T23:11:04.293Z,25.37
2018-09-13T23:13:32.695Z,24.63
2018-09-13T23:16:01.154Z,25.33
2018-09-13T23:18:29.444Z,24.80
2018-09-13T23:20:57.764Z,26.60
2018-09-13T23:23:26.076Z,25.57
2018-09-13T23:25:54.399Z,23.63
2018-09-13T23:28:22.729Z,25.93
2018-09-13T23:30:51.515Z,27.80
2018-09-13T23:33:19.831Z,27.43
2018-09-13T23:35:48.225Z,25.30
2018-09-13T23:38:16.545Z,26.80
2018-09-13T23:40:44.934Z,27.17
2018-09-13T23:43:13.224Z,29.63
2018-09-13T23:45:41.530Z,27.60
2018-09-13T23:48:09.852Z,26.73
2018-09-13T23:50:38.160Z,27.50
2018-09-13T23:53:06.508Z,30.17
2018-09-13T23:55:34.813Z,28.97
2018-09-13T23:58:03.186Z,27.07
